Saint Charles, South Dakota
Current Conditions -  °F | °C
As of 5:01 AM on Monday 22 Dec 2014 (Local Time) from KICR Reporting Station
Overcast Overcast  
Wind Chill: -1°   Ceiling: 1900
Heat Index:   Visibility: 10mi
Dew Point:   Wind: 17mph
Humidity: 89%   Direction: 290°WNW
Pressure: 29.46"   Gusts: NA
Location:  43.09°N, 99.1°W
Report Text: KICR 221101Z AUTO 29015KT 10SM FEW014 OVC019 04/02 A2946 RMK AO2 T00390022
Loading
Personal Weather Stations






























Interactive Weather Map New forecast layout! Learn more

10-Day Weather Forecast

Advertisements
Track Severe Weather on mobile